<?xml version='1.0' encoding='UTF-8'?><gpx version="1.1" creator="JPX - https://github.com/jenetics/jpx" xmlns="http://www.topografix.com/GPX/1/1"><trk><trkseg><trkpt lat="45.5666383" lon="11.32851"><ele>354.0</ele><time>2026-03-22T10:59:43.967Z</time></trkpt><trkpt lat="45.56658" lon="11.3284533"><ele>354.0</ele><time>2026-03-22T11:00:12.966Z</time></trkpt><trkpt lat="45.5665117" lon="11.3284083"><ele>354.0</ele><time>2026-03-22T11:00:16.967Z</time></trkpt><trkpt lat="45.5664833" lon="11.328325"><ele>354.0</ele><time>2026-03-22T11:00:20.967Z</time></trkpt><trkpt lat="45.5664883" lon="11.3282017"><ele>354.0</ele><time>2026-03-22T11:00:24.968Z</time></trkpt><trkpt lat="45.5665217" lon="11.3281217"><ele>354.0</ele><time>2026-03-22T11:00:26.967Z</time></trkpt><trkpt lat="45.5665467" lon="11.3280333"><ele>354.0</ele><time>2026-03-22T11:00:28.966Z</time></trkpt><trkpt lat="45.56652" lon="11.3279483"><ele>354.6666666666667</ele><time>2026-03-22T11:00:30.966Z</time></trkpt><trkpt lat="45.5664783" lon="11.32788"><ele>355.3333333333333</ele><time>2026-03-22T11:00:32.966Z</time></trkpt><trkpt lat="45.566425" lon="11.3277917"><ele>356.0</ele><time>2026-03-22T11:00:34.965Z</time></trkpt><trkpt lat="45.5663683" lon="11.3276833"><ele>356.66666666666663</ele><time>2026-03-22T11:00:36.966Z</time></trkpt><trkpt lat="45.5663383" lon="11.3275767"><ele>357.3333333333333</ele><time>2026-03-22T11:00:38.968Z</time></trkpt><trkpt lat="45.5663133" lon="11.3274317"><ele>358.0</ele><time>2026-03-22T11:00:40.965Z</time></trkpt><trkpt lat="45.566265" lon="11.3273067"><ele>355.0</ele><time>2026-03-22T11:00:42.968Z</time></trkpt><trkpt lat="45.5661717" lon="11.3272"><ele>352.0</ele><time>2026-03-22T11:00:44.968Z</time></trkpt><trkpt lat="45.566125" lon="11.3271383"><ele>349.0</ele><time>2026-03-22T11:00:45.967Z</time></trkpt><trkpt lat="45.5660767" lon="11.3270567"><ele>346.0</ele><time>2026-03-22T11:00:46.969Z</time></trkpt><trkpt lat="45.5660333" lon="11.32698"><ele>343.0</ele><time>2026-03-22T11:00:47.969Z</time></trkpt><trkpt lat="45.5659983" lon="11.3268983"><ele>340.0</ele><time>2026-03-22T11:00:48.967Z</time></trkpt><trkpt lat="45.5659467" lon="11.3267483"><ele>340.0</ele><time>2026-03-22T11:00:50.969Z</time></trkpt><trkpt lat="45.5659033" lon="11.32656"><ele>340.0</ele><time>2026-03-22T11:00:52.968Z</time></trkpt><trkpt lat="45.5658817" lon="11.3264533"><ele>340.0</ele><time>2026-03-22T11:00:53.969Z</time></trkpt><trkpt lat="45.5658583" lon="11.3263467"><ele>340.0</ele><time>2026-03-22T11:00:54.969Z</time></trkpt><trkpt lat="45.5658333" lon="11.3262567"><ele>340.0</ele><time>2026-03-22T11:00:55.969Z</time></trkpt><trkpt lat="45.565805" lon="11.326155"><ele>340.0</ele><time>2026-03-22T11:00:56.968Z</time></trkpt><trkpt lat="45.5657683" lon="11.32606"><ele>341.16666666666663</ele><time>2026-03-22T11:00:57.968Z</time></trkpt><trkpt lat="45.5657217" lon="11.32598"><ele>342.3333333333333</ele><time>2026-03-22T11:00:58.969Z</time></trkpt><trkpt lat="45.5656717" lon="11.3259067"><ele>343.5</ele><time>2026-03-22T11:00:59.968Z</time></trkpt><trkpt lat="45.565615" lon="11.3258267"><ele>344.6666666666667</ele><time>2026-03-22T11:01:00.969Z</time></trkpt><trkpt lat="45.565565" lon="11.3257467"><ele>345.83333333333337</ele><time>2026-03-22T11:01:01.967Z</time></trkpt><trkpt lat="45.565525" lon="11.3256517"><ele>347.0</ele><time>2026-03-22T11:01:02.967Z</time></trkpt><trkpt lat="45.565495" lon="11.3255533"><ele>347.1666666666667</ele><time>2026-03-22T11:01:03.968Z</time></trkpt><trkpt lat="45.56547" lon="11.32545"><ele>347.33333333333337</ele><time>2026-03-22T11:01:04.967Z</time></trkpt><trkpt lat="45.56546" lon="11.3253517"><ele>347.5</ele><time>2026-03-22T11:01:05.969Z</time></trkpt><trkpt lat="45.5654517" lon="11.3252583"><ele>347.6666666666667</ele><time>2026-03-22T11:01:06.967Z</time></trkpt><trkpt lat="45.5654383" lon="11.32512"><ele>347.8333333333333</ele><time>2026-03-22T11:01:08.966Z</time></trkpt><trkpt lat="45.5654383" lon="11.3250133"><ele>348.0</ele><time>2026-03-22T11:01:11.968Z</time></trkpt><trkpt lat="45.565445" lon="11.3249067"><ele>348.0</ele><time>2026-03-22T11:01:16.966Z</time></trkpt><trkpt lat="45.5654417" lon="11.32481"><ele>348.0</ele><time>2026-03-22T11:01:19.967Z</time></trkpt><trkpt lat="45.5654567" lon="11.32468"><ele>348.0</ele><time>2026-03-22T11:01:22.968Z</time></trkpt><trkpt lat="45.5654617" lon="11.3245667"><ele>348.0</ele><time>2026-03-22T11:01:25.967Z</time></trkpt><trkpt lat="45.5654417" lon="11.324475"><ele>348.0</ele><time>2026-03-22T11:01:28.967Z</time></trkpt><trkpt lat="45.5654717" lon="11.3243617"><ele>348.0</ele><time>2026-03-22T11:01:30.967Z</time></trkpt><trkpt lat="45.56553" lon="11.3242483"><ele>347.0</ele><time>2026-03-22T11:01:32.968Z</time></trkpt><trkpt lat="45.5656117" lon="11.3241467"><ele>346.0</ele><time>2026-03-22T11:01:34.966Z</time></trkpt><trkpt lat="45.5656883" lon="11.32409"><ele>345.0</ele><time>2026-03-22T11:01:36.969Z</time></trkpt><trkpt lat="45.565735" lon="11.3240283"><ele>344.0</ele><time>2026-03-22T11:01:38.967Z</time></trkpt><trkpt lat="45.5657517" lon="11.3239067"><ele>343.0</ele><time>2026-03-22T11:01:51.966Z</time></trkpt><trkpt lat="45.5657483" lon="11.32377"><ele>342.0</ele><time>2026-03-22T11:01:53.967Z</time></trkpt><trkpt lat="45.5657583" lon="11.3236783"><ele>341.6666666666667</ele><time>2026-03-22T11:01:54.967Z</time></trkpt><trkpt lat="45.5657717" lon="11.32359"><ele>341.3333333333333</ele><time>2026-03-22T11:01:55.967Z</time></trkpt><trkpt lat="45.56579" lon="11.323495"><ele>341.0</ele><time>2026-03-22T11:01:56.968Z</time></trkpt><trkpt lat="45.565815" lon="11.3233933"><ele>340.66666666666663</ele><time>2026-03-22T11:01:57.969Z</time></trkpt><trkpt lat="45.5658367" lon="11.3232883"><ele>340.3333333333333</ele><time>2026-03-22T11:01:58.967Z</time></trkpt><trkpt lat="45.565855" lon="11.32317"><ele>340.0</ele><time>2026-03-22T11:01:59.968Z</time></trkpt><trkpt lat="45.5658683" lon="11.32305"><ele>341.14285714285717</ele><time>2026-03-22T11:02:00.967Z</time></trkpt><trkpt lat="45.5658783" lon="11.3229383"><ele>342.2857142857143</ele><time>2026-03-22T11:02:01.967Z</time></trkpt><trkpt lat="45.5658717" lon="11.3228433"><ele>343.42857142857144</ele><time>2026-03-22T11:02:02.968Z</time></trkpt><trkpt lat="45.5658517" lon="11.3227483"><ele>344.57142857142856</ele><time>2026-03-22T11:02:03.969Z</time></trkpt><trkpt lat="45.5658233" lon="11.3226483"><ele>345.7142857142857</ele><time>2026-03-22T11:02:04.969Z</time></trkpt><trkpt lat="45.5657767" lon="11.3225683"><ele>346.85714285714283</ele><time>2026-03-22T11:02:05.967Z</time></trkpt><trkpt lat="45.5657233" lon="11.32249"><ele>348.0</ele><time>2026-03-22T11:02:06.966Z</time></trkpt><trkpt lat="45.56567" lon="11.32241"><ele>348.0</ele><time>2026-03-22T11:02:07.969Z</time></trkpt><trkpt lat="45.5656283" lon="11.32234"><ele>348.0</ele><time>2026-03-22T11:02:08.969Z</time></trkpt><trkpt lat="45.565585" lon="11.3222083"><ele>348.0</ele><time>2026-03-22T11:02:10.969Z</time></trkpt><trkpt lat="45.56558" lon="11.3220883"><ele>348.0</ele><time>2026-03-22T11:02:12.968Z</time></trkpt><trkpt lat="45.5656233" lon="11.3219333"><ele>348.0</ele><time>2026-03-22T11:02:14.967Z</time></trkpt><trkpt lat="45.5656617" lon="11.32185"><ele>348.0</ele><time>2026-03-22T11:02:15.968Z</time></trkpt><trkpt lat="45.5657017" lon="11.3217683"><ele>348.59999999999997</ele><time>2026-03-22T11:02:16.969Z</time></trkpt><trkpt lat="45.56578" lon="11.3216383"><ele>349.2</ele><time>2026-03-22T11:02:18.967Z</time></trkpt><trkpt lat="45.56588" lon="11.3215267"><ele>349.8</ele><time>2026-03-22T11:02:20.969Z</time></trkpt><trkpt lat="45.5659433" lon="11.3214717"><ele>350.4</ele><time>2026-03-22T11:02:21.969Z</time></trkpt><trkpt lat="45.566" lon="11.3214217"><ele>351.0</ele><time>2026-03-22T11:02:22.967Z</time></trkpt><trkpt lat="45.56605" lon="11.321365"><ele>349.4</ele><time>2026-03-22T11:02:23.969Z</time></trkpt><trkpt lat="45.5660917" lon="11.3211983"><ele>347.8</ele><time>2026-03-22T11:02:25.966Z</time></trkpt><trkpt lat="45.56609" lon="11.3211067"><ele>346.2</ele><time>2026-03-22T11:02:26.968Z</time></trkpt><trkpt lat="45.5660583" lon="11.3209433"><ele>344.59999999999997</ele><time>2026-03-22T11:02:28.969Z</time></trkpt><trkpt lat="45.566035" lon="11.3207917"><ele>343.0</ele><time>2026-03-22T11:02:30.965Z</time></trkpt><trkpt lat="45.5660433" lon="11.3206633"><ele>343.2</ele><time>2026-03-22T11:02:32.965Z</time></trkpt><trkpt lat="45.5660967" lon="11.3205133"><ele>343.4</ele><time>2026-03-22T11:02:34.965Z</time></trkpt><trkpt lat="45.5661867" lon="11.3204183"><ele>343.59999999999997</ele><time>2026-03-22T11:02:36.965Z</time></trkpt><trkpt lat="45.5662567" lon="11.320325"><ele>343.79999999999995</ele><time>2026-03-22T11:02:38.965Z</time></trkpt><trkpt lat="45.56632" lon="11.3202617"><ele>344.0</ele><time>2026-03-22T11:02:40.964Z</time></trkpt><trkpt lat="45.5664183" lon="11.3201633"><ele>344.2</ele><time>2026-03-22T11:02:42.968Z</time></trkpt><trkpt lat="45.5664933" lon="11.3200217"><ele>344.4</ele><time>2026-03-22T11:02:44.968Z</time></trkpt><trkpt lat="45.566515" lon="11.3199117"><ele>344.6</ele><time>2026-03-22T11:02:45.967Z</time></trkpt><trkpt lat="45.56654" lon="11.3197833"><ele>344.8</ele><time>2026-03-22T11:02:46.965Z</time></trkpt><trkpt lat="45.5665617" lon="11.3196583"><ele>345.0</ele><time>2026-03-22T11:02:47.967Z</time></trkpt><trkpt lat="45.5665833" lon="11.31955"><ele>345.0</ele><time>2026-03-22T11:02:48.968Z</time></trkpt><trkpt lat="45.5666167" lon="11.3194583"><ele>345.0</ele><time>2026-03-22T11:02:49.968Z</time></trkpt><trkpt lat="45.5666567" lon="11.3193867"><ele>345.0</ele><time>2026-03-22T11:02:50.968Z</time></trkpt><trkpt lat="45.5667533" lon="11.3192933"><ele>345.0</ele><time>2026-03-22T11:02:52.965Z</time></trkpt><trkpt lat="45.5668717" lon="11.3192433"><ele>345.0</ele><time>2026-03-22T11:02:54.969Z</time></trkpt><trkpt lat="45.5669383" lon="11.3192267"><ele>345.0</ele><time>2026-03-22T11:02:55.97Z</time></trkpt><trkpt lat="45.5670583" lon="11.3192017"><ele>346.6</ele><time>2026-03-22T11:02:57.967Z</time></trkpt><trkpt lat="45.56715" lon="11.3191833"><ele>348.2</ele><time>2026-03-22T11:02:59.968Z</time></trkpt><trkpt lat="45.5672483" lon="11.3191233"><ele>349.79999999999995</ele><time>2026-03-22T11:03:01.967Z</time></trkpt><trkpt lat="45.5673083" lon="11.3190933"><ele>351.4</ele><time>2026-03-22T11:03:02.968Z</time></trkpt><trkpt lat="45.5674383" lon="11.3190767"><ele>353.0</ele><time>2026-03-22T11:03:04.967Z</time></trkpt><trkpt lat="45.5675183" lon="11.3190683"><ele>353.0</ele><time>2026-03-22T11:03:05.968Z</time></trkpt><trkpt lat="45.5675917" lon="11.31906"><ele>353.0</ele><time>2026-03-22T11:03:06.968Z</time></trkpt><trkpt lat="45.56771" lon="11.3190333"><ele>353.0</ele><time>2026-03-22T11:03:07.969Z</time></trkpt><trkpt lat="45.5678167" lon="11.31902"><ele>353.0</ele><time>2026-03-22T11:03:08.967Z</time></trkpt><trkpt lat="45.5679233" lon="11.3189717"><ele>353.0</ele><time>2026-03-22T11:03:09.967Z</time></trkpt><trkpt lat="45.5680033" lon="11.3189317"><ele>355.1666666666667</ele><time>2026-03-22T11:03:10.968Z</time></trkpt><trkpt lat="45.56806" lon="11.3188917"><ele>357.33333333333337</ele><time>2026-03-22T11:03:11.967Z</time></trkpt><trkpt lat="45.56812" lon="11.3188267"><ele>359.5</ele><time>2026-03-22T11:03:13.967Z</time></trkpt><trkpt lat="45.5680317" lon="11.31868"><ele>361.6666666666667</ele><time>2026-03-22T11:04:47.965Z</time></trkpt><trkpt lat="45.5680433" lon="11.3187817"><ele>363.8333333333333</ele><time>2026-03-22T11:06:16.966Z</time></trkpt><trkpt lat="45.567975" lon="11.3188033"><ele>366.0</ele><time>2026-03-22T11:06:18.967Z</time></trkpt><trkpt lat="45.567875" lon="11.318845"><ele>363.8333333333333</ele><time>2026-03-22T11:06:20.966Z</time></trkpt><trkpt lat="45.5677617" lon="11.3189133"><ele>361.6666666666667</ele><time>2026-03-22T11:06:22.965Z</time></trkpt><trkpt lat="45.5677" lon="11.3189317"><ele>359.5</ele><time>2026-03-22T11:06:23.967Z</time></trkpt><trkpt lat="45.5676367" lon="11.318955"><ele>357.33333333333337</ele><time>2026-03-22T11:06:24.967Z</time></trkpt><trkpt lat="45.5675417" lon="11.318995"><ele>355.1666666666667</ele><time>2026-03-22T11:06:26.967Z</time></trkpt><trkpt lat="45.5674917" lon="11.319055"><ele>353.0</ele><time>2026-03-22T11:09:00.966Z</time></trkpt><trkpt lat="45.5674067" lon="11.3191467"><ele>353.0</ele><time>2026-03-22T11:10:02.967Z</time></trkpt><trkpt lat="45.5673233" lon="11.3192083"><ele>353.0</ele><time>2026-03-22T11:10:06.968Z</time></trkpt><trkpt lat="45.5672333" lon="11.3192583"><ele>353.0</ele><time>2026-03-22T11:10:08.969Z</time></trkpt><trkpt lat="45.567115" lon="11.3192883"><ele>353.0</ele><time>2026-03-22T11:10:10.968Z</time></trkpt><trkpt lat="45.5670217" lon="11.3192983"><ele>353.0</ele><time>2026-03-22T11:10:12.966Z</time></trkpt><trkpt lat="45.5669517" lon="11.319325"><ele>352.5</ele><time>2026-03-22T11:10:14.967Z</time></trkpt><trkpt lat="45.5668817" lon="11.3193417"><ele>352.0</ele><time>2026-03-22T11:10:16.967Z</time></trkpt><trkpt lat="45.5668117" lon="11.319375"><ele>351.5</ele><time>2026-03-22T11:10:18.967Z</time></trkpt><trkpt lat="45.5667367" lon="11.3194317"><ele>351.0</ele><time>2026-03-22T11:10:20.968Z</time></trkpt><trkpt lat="45.5666733" lon="11.31952"><ele>350.5</ele><time>2026-03-22T11:10:22.967Z</time></trkpt><trkpt lat="45.5666083" lon="11.31965"><ele>350.0</ele><time>2026-03-22T11:10:24.968Z</time></trkpt><trkpt lat="45.5665583" lon="11.31983"><ele>350.0</ele><time>2026-03-22T11:10:26.967Z</time></trkpt><trkpt lat="45.566535" lon="11.3199467"><ele>350.0</ele><time>2026-03-22T11:10:27.966Z</time></trkpt><trkpt lat="45.56651" lon="11.3200633"><ele>350.0</ele><time>2026-03-22T11:10:28.967Z</time></trkpt><trkpt lat="45.5664833" lon="11.32017"><ele>350.0</ele><time>2026-03-22T11:10:29.968Z</time></trkpt><trkpt lat="45.5664483" lon="11.3202533"><ele>350.0</ele><time>2026-03-22T11:10:30.966Z</time></trkpt><trkpt lat="45.5663567" lon="11.320355"><ele>350.0</ele><time>2026-03-22T11:10:32.969Z</time></trkpt><trkpt lat="45.5662917" lon="11.320395"><ele>350.0</ele><time>2026-03-22T11:10:35.967Z</time></trkpt><trkpt lat="45.5662067" lon="11.32038"><ele>350.0</ele><time>2026-03-22T11:10:39.966Z</time></trkpt><trkpt lat="45.5661433" lon="11.3203433"><ele>350.0</ele><time>2026-03-22T11:10:41.965Z</time></trkpt><trkpt lat="45.566055" lon="11.3202883"><ele>350.0</ele><time>2026-03-22T11:10:43.968Z</time></trkpt><trkpt lat="45.5659467" lon="11.3202483"><ele>350.0</ele><time>2026-03-22T11:10:45.967Z</time></trkpt><trkpt lat="45.5658467" lon="11.3202217"><ele>348.8</ele><time>2026-03-22T11:10:47.968Z</time></trkpt><trkpt lat="45.5657583" lon="11.3201983"><ele>347.6</ele><time>2026-03-22T11:10:50.968Z</time></trkpt><trkpt lat="45.5656767" lon="11.3201767"><ele>346.4</ele><time>2026-03-22T11:10:52.968Z</time></trkpt><trkpt lat="45.56559" lon="11.32014"><ele>345.2</ele><time>2026-03-22T11:10:54.965Z</time></trkpt><trkpt lat="45.5655017" lon="11.3201067"><ele>344.0</ele><time>2026-03-22T11:10:56.967Z</time></trkpt><trkpt lat="45.5654133" lon="11.320045"><ele>341.2</ele><time>2026-03-22T11:10:58.966Z</time></trkpt><trkpt lat="45.5653417" lon="11.3199667"><ele>338.4</ele><time>2026-03-22T11:11:00.968Z</time></trkpt><trkpt lat="45.565255" lon="11.319785"><ele>335.6</ele><time>2026-03-22T11:11:53.966Z</time></trkpt><trkpt lat="45.5652367" lon="11.3196633"><ele>332.8</ele><time>2026-03-22T11:14:13.968Z</time></trkpt><trkpt lat="45.5652017" lon="11.319535"><ele>330.0</ele><time>2026-03-22T11:14:15.967Z</time></trkpt><trkpt lat="45.5651433" lon="11.31944"><ele>329.1666666666667</ele><time>2026-03-22T11:14:17.966Z</time></trkpt><trkpt lat="45.5650717" lon="11.31936"><ele>328.3333333333333</ele><time>2026-03-22T11:14:19.968Z</time></trkpt><trkpt lat="45.56501" lon="11.319285"><ele>327.5</ele><time>2026-03-22T11:14:21.969Z</time></trkpt><trkpt lat="45.5649533" lon="11.3191933"><ele>326.66666666666663</ele><time>2026-03-22T11:14:23.966Z</time></trkpt><trkpt lat="45.5649067" lon="11.319105"><ele>325.8333333333333</ele><time>2026-03-22T11:14:24.967Z</time></trkpt><trkpt lat="45.56486" lon="11.318995"><ele>325.0</ele><time>2026-03-22T11:14:25.967Z</time></trkpt><trkpt lat="45.5648183" lon="11.31886"><ele>323.66666666666663</ele><time>2026-03-22T11:14:27.967Z</time></trkpt><trkpt lat="45.56483" lon="11.3187383"><ele>322.3333333333333</ele><time>2026-03-22T11:14:29.967Z</time></trkpt><trkpt lat="45.5648183" lon="11.3186333"><ele>321.0</ele><time>2026-03-22T11:14:31.966Z</time></trkpt><trkpt lat="45.5648233" lon="11.3184567"><ele>319.6666666666667</ele><time>2026-03-22T11:14:43.966Z</time></trkpt><trkpt lat="45.5648417" lon="11.3183517"><ele>318.33333333333337</ele><time>2026-03-22T11:14:45.965Z</time></trkpt><trkpt lat="45.5648717" lon="11.318245"><ele>317.0</ele><time>2026-03-22T11:14:47.968Z</time></trkpt><trkpt lat="45.5649117" lon="11.31813"><ele>316.8</ele><time>2026-03-22T11:14:49.966Z</time></trkpt><trkpt lat="45.56493" lon="11.3178967"><ele>316.6</ele><time>2026-03-22T11:15:12.968Z</time></trkpt><trkpt lat="45.56487" lon="11.3178133"><ele>316.40000000000003</ele><time>2026-03-22T11:15:15.966Z</time></trkpt><trkpt lat="45.5648117" lon="11.3177533"><ele>316.2</ele><time>2026-03-22T11:15:18.968Z</time></trkpt><trkpt lat="45.56471" lon="11.3177467"><ele>316.0</ele><time>2026-03-22T11:15:33.968Z</time></trkpt><trkpt lat="45.5645717" lon="11.3178167"><ele>316.14285714285717</ele><time>2026-03-22T11:16:22.968Z</time></trkpt><trkpt lat="45.5645033" lon="11.3178433"><ele>316.2857142857143</ele><time>2026-03-22T11:16:27.968Z</time></trkpt><trkpt lat="45.564455" lon="11.317915"><ele>316.42857142857144</ele><time>2026-03-22T11:16:30.968Z</time></trkpt><trkpt lat="45.5644133" lon="11.3180067"><ele>316.57142857142856</ele><time>2026-03-22T11:16:33.968Z</time></trkpt><trkpt lat="45.5643783" lon="11.3180867"><ele>316.7142857142857</ele><time>2026-03-22T11:16:35.968Z</time></trkpt><trkpt lat="45.5643283" lon="11.3181717"><ele>316.8571428571429</ele><time>2026-03-22T11:16:38.968Z</time></trkpt><trkpt lat="45.56426" lon="11.318175"><ele>317.0</ele><time>2026-03-22T11:16:41.966Z</time></trkpt><trkpt lat="45.5643167" lon="11.31808"><ele>317.0</ele><time>2026-03-22T11:16:49.967Z</time></trkpt><trkpt lat="45.5643867" lon="11.3180417"><ele>317.0</ele><time>2026-03-22T11:16:51.967Z</time></trkpt><trkpt lat="45.5644567" lon="11.31799"><ele>317.0</ele><time>2026-03-22T11:16:53.966Z</time></trkpt><trkpt lat="45.5645417" lon="11.317915"><ele>317.0</ele><time>2026-03-22T11:16:56.968Z</time></trkpt><trkpt lat="45.56458" lon="11.317825"><ele>317.0</ele><time>2026-03-22T11:16:58.968Z</time></trkpt><trkpt lat="45.5646317" lon="11.31776"><ele>317.0</ele><time>2026-03-22T11:17:00.968Z</time></trkpt><trkpt lat="45.5646833" lon="11.31767"><ele>316.83333333333337</ele><time>2026-03-22T11:17:02.969Z</time></trkpt><trkpt lat="45.5647317" lon="11.3175817"><ele>316.6666666666667</ele><time>2026-03-22T11:17:04.97Z</time></trkpt><trkpt lat="45.5646767" lon="11.3177333"><ele>316.5</ele><time>2026-03-22T11:18:03.967Z</time></trkpt><trkpt lat="45.5646233" lon="11.31764"><ele>316.3333333333333</ele><time>2026-03-22T11:19:34.964Z</time></trkpt><trkpt lat="45.5645724" lon="11.3177247"><ele>316.16666666666663</ele><time>2026-03-22T11:41:42.008Z</time></trkpt><trkpt lat="45.5646391" lon="11.3177149"><ele>316.0</ele><time>2026-03-22T11:44:16.022Z</time></trkpt><trkpt lat="45.5645717" lon="11.3177118"><ele>316.0</ele><time>2026-03-22T11:48:47.051Z</time></trkpt><trkpt lat="45.5646617" lon="11.3177433"><ele>316.0</ele><time>2026-03-22T11:49:35.966Z</time></trkpt><trkpt lat="45.564725" lon="11.31766"><ele>316.0</ele><time>2026-03-22T11:49:39.963Z</time></trkpt><trkpt lat="45.5648133" lon="11.3176133"><ele>316.0</ele><time>2026-03-22T11:49:46.963Z</time></trkpt><trkpt lat="45.5648867" lon="11.317565"><ele>316.0</ele><time>2026-03-22T11:49:55.966Z</time></trkpt><trkpt lat="45.56494" lon="11.317415"><ele>316.0</ele><time>2026-03-22T11:49:58.966Z</time></trkpt><trkpt lat="45.56499" lon="11.3173267"><ele>316.0</ele><time>2026-03-22T11:50:00.964Z</time></trkpt><trkpt lat="45.565065" lon="11.3172233"><ele>316.0</ele><time>2026-03-22T11:50:02.965Z</time></trkpt><trkpt lat="45.565305" lon="11.3171867"><ele>316.0</ele><time>2026-03-22T11:50:10.966Z</time></trkpt><trkpt lat="45.5653817" lon="11.317195"><ele>318.6</ele><time>2026-03-22T11:50:12.966Z</time></trkpt><trkpt lat="45.5655083" lon="11.3171967"><ele>321.20000000000005</ele><time>2026-03-22T11:50:15.964Z</time></trkpt><trkpt lat="45.5656233" lon="11.3172767"><ele>323.79999999999995</ele><time>2026-03-22T11:50:16.965Z</time></trkpt><trkpt lat="45.5656867" lon="11.3172883"><ele>326.4</ele><time>2026-03-22T11:50:18.967Z</time></trkpt><trkpt lat="45.5657567" lon="11.3172717"><ele>329.0</ele><time>2026-03-22T11:50:20.967Z</time></trkpt><trkpt lat="45.5658183" lon="11.3172367"><ele>329.33333333333337</ele><time>2026-03-22T11:50:22.967Z</time></trkpt><trkpt lat="45.5659" lon="11.31718"><ele>329.6666666666667</ele><time>2026-03-22T11:50:26.968Z</time></trkpt><trkpt lat="45.5659583" lon="11.3171267"><ele>330.0</ele><time>2026-03-22T11:50:28.966Z</time></trkpt><trkpt lat="45.5660267" lon="11.3170417"><ele>330.3333333333333</ele><time>2026-03-22T11:50:30.965Z</time></trkpt><trkpt lat="45.566105" lon="11.31697"><ele>330.66666666666663</ele><time>2026-03-22T11:50:32.965Z</time></trkpt><trkpt lat="45.566175" lon="11.3169117"><ele>331.0</ele><time>2026-03-22T11:50:35.967Z</time></trkpt><trkpt lat="45.5662517" lon="11.3168517"><ele>331.3333333333333</ele><time>2026-03-22T11:50:37.964Z</time></trkpt><trkpt lat="45.5663383" lon="11.3167717"><ele>331.66666666666663</ele><time>2026-03-22T11:50:39.963Z</time></trkpt><trkpt lat="45.566415" lon="11.3167133"><ele>332.0</ele><time>2026-03-22T11:50:41.966Z</time></trkpt><trkpt lat="45.5664783" lon="11.3166583"><ele>332.3333333333333</ele><time>2026-03-22T11:50:43.967Z</time></trkpt><trkpt lat="45.566535" lon="11.3165917"><ele>332.6666666666667</ele><time>2026-03-22T11:50:44.966Z</time></trkpt><trkpt lat="45.5665983" lon="11.3165183"><ele>333.0</ele><time>2026-03-22T11:50:45.964Z</time></trkpt><trkpt lat="45.566665" lon="11.3164383"><ele>333.79999999999995</ele><time>2026-03-22T11:50:46.964Z</time></trkpt><trkpt lat="45.5667267" lon="11.316355"><ele>334.6</ele><time>2026-03-22T11:50:47.966Z</time></trkpt><trkpt lat="45.5667983" lon="11.3162733"><ele>335.4</ele><time>2026-03-22T11:50:48.967Z</time></trkpt><trkpt lat="45.5668633" lon="11.3162183"><ele>336.20000000000005</ele><time>2026-03-22T11:50:49.967Z</time></trkpt><trkpt lat="45.5669183" lon="11.316165"><ele>337.0</ele><time>2026-03-22T11:50:50.967Z</time></trkpt><trkpt lat="45.5669967" lon="11.316015"><ele>337.0</ele><time>2026-03-22T11:50:52.968Z</time></trkpt><trkpt lat="45.5670267" lon="11.3158933"><ele>337.0</ele><time>2026-03-22T11:50:53.967Z</time></trkpt><trkpt lat="45.5670417" lon="11.31578"><ele>337.0</ele><time>2026-03-22T11:50:54.966Z</time></trkpt><trkpt lat="45.5670467" lon="11.31568"><ele>337.0</ele><time>2026-03-22T11:50:55.966Z</time></trkpt><trkpt lat="45.567055" lon="11.31559"><ele>337.0</ele><time>2026-03-22T11:50:56.967Z</time></trkpt><trkpt lat="45.567095" lon="11.3154617"><ele>337.0</ele><time>2026-03-22T11:50:58.966Z</time></trkpt><trkpt lat="45.567145" lon="11.315355"><ele>339.66666666666663</ele><time>2026-03-22T11:51:00.966Z</time></trkpt><trkpt lat="45.5671917" lon="11.3152367"><ele>342.3333333333333</ele><time>2026-03-22T11:51:02.967Z</time></trkpt><trkpt lat="45.5672217" lon="11.3151467"><ele>345.0</ele><time>2026-03-22T11:51:04.966Z</time></trkpt><trkpt lat="45.56726" lon="11.3150533"><ele>347.6666666666667</ele><time>2026-03-22T11:51:06.967Z</time></trkpt><trkpt lat="45.5673133" lon="11.31496"><ele>350.33333333333337</ele><time>2026-03-22T11:51:08.966Z</time></trkpt><trkpt lat="45.5673267" lon="11.3148633"><ele>353.0</ele><time>2026-03-22T11:51:11.968Z</time></trkpt><trkpt lat="45.5673733" lon="11.3146733"><ele>353.0</ele><time>2026-03-22T11:51:55.964Z</time></trkpt><trkpt lat="45.567355" lon="11.31477"><ele>353.0</ele><time>2026-03-22T11:54:14.968Z</time></trkpt><trkpt lat="45.5673217" lon="11.31489"><ele>353.0</ele><time>2026-03-22T11:54:20.966Z</time></trkpt><trkpt lat="45.5673167" lon="11.3149983"><ele>353.0</ele><time>2026-03-22T11:54:24.966Z</time></trkpt><trkpt lat="45.5672867" lon="11.3150883"><ele>353.0</ele><time>2026-03-22T11:54:27.967Z</time></trkpt><trkpt lat="45.567255" lon="11.3151733"><ele>353.0</ele><time>2026-03-22T11:54:30.966Z</time></trkpt><trkpt lat="45.567245" lon="11.3152783"><ele>353.0</ele><time>2026-03-22T11:54:33.967Z</time></trkpt><trkpt lat="45.5672183" lon="11.3154117"><ele>353.0</ele><time>2026-03-22T11:54:36.968Z</time></trkpt><trkpt lat="45.567215" lon="11.3155033"><ele>353.0</ele><time>2026-03-22T11:54:38.966Z</time></trkpt><trkpt lat="45.5671983" lon="11.3156417"><ele>353.0</ele><time>2026-03-22T11:54:41.966Z</time></trkpt><trkpt lat="45.5671917" lon="11.31574"><ele>353.0</ele><time>2026-03-22T11:54:43.967Z</time></trkpt><trkpt lat="45.567195" lon="11.3158517"><ele>353.0</ele><time>2026-03-22T11:54:45.965Z</time></trkpt><trkpt lat="45.567195" lon="11.315955"><ele>353.0</ele><time>2026-03-22T11:54:47.964Z</time></trkpt><trkpt lat="45.5671967" lon="11.3160517"><ele>352.33333333333337</ele><time>2026-03-22T11:54:49.966Z</time></trkpt><trkpt lat="45.5672167" lon="11.3161417"><ele>351.6666666666667</ele><time>2026-03-22T11:54:51.966Z</time></trkpt><trkpt lat="45.5672433" lon="11.316265"><ele>351.0</ele><time>2026-03-22T11:54:53.966Z</time></trkpt><trkpt lat="45.56728" lon="11.3163617"><ele>350.3333333333333</ele><time>2026-03-22T11:54:55.966Z</time></trkpt><trkpt lat="45.5672833" lon="11.316485"><ele>349.66666666666663</ele><time>2026-03-22T11:54:58.967Z</time></trkpt><trkpt lat="45.567265" lon="11.3165733"><ele>349.0</ele><time>2026-03-22T11:55:00.967Z</time></trkpt><trkpt lat="45.5673017" lon="11.316695"><ele>347.8333333333333</ele><time>2026-03-22T11:55:02.965Z</time></trkpt><trkpt lat="45.56738" lon="11.316765"><ele>346.66666666666663</ele><time>2026-03-22T11:55:05.967Z</time></trkpt><trkpt lat="45.5674383" lon="11.31684"><ele>345.5</ele><time>2026-03-22T11:55:08.965Z</time></trkpt><trkpt lat="45.5674833" lon="11.31691"><ele>344.3333333333333</ele><time>2026-03-22T11:55:11.967Z</time></trkpt><trkpt lat="45.5675267" lon="11.3169917"><ele>343.1666666666667</ele><time>2026-03-22T11:55:14.968Z</time></trkpt><trkpt lat="45.56759" lon="11.3170617"><ele>342.0</ele><time>2026-03-22T11:55:21.967Z</time></trkpt><trkpt lat="45.5676917" lon="11.3170483"><ele>341.99999999999994</ele><time>2026-03-22T11:55:24.966Z</time></trkpt><trkpt lat="45.5677583" lon="11.3170633"><ele>342.0</ele><time>2026-03-22T11:55:26.966Z</time></trkpt><trkpt lat="45.5678167" lon="11.317125"><ele>342.0</ele><time>2026-03-22T11:55:28.968Z</time></trkpt><trkpt lat="45.56789" lon="11.317175"><ele>342.0</ele><time>2026-03-22T11:55:30.968Z</time></trkpt><trkpt lat="45.567955" lon="11.3172483"><ele>342.0</ele><time>2026-03-22T11:55:33.97Z</time></trkpt><trkpt lat="45.5680267" lon="11.3172783"><ele>341.99999999999994</ele><time>2026-03-22T11:55:36.965Z</time></trkpt><trkpt lat="45.568085" lon="11.3172333"><ele>342.0</ele><time>2026-03-22T11:55:46.964Z</time></trkpt><trkpt lat="45.568155" lon="11.3172017"><ele>344.1428571428571</ele><time>2026-03-22T11:56:00.967Z</time></trkpt><trkpt lat="45.5682183" lon="11.3171767"><ele>346.2857142857143</ele><time>2026-03-22T11:56:07.966Z</time></trkpt><trkpt lat="45.568315" lon="11.31714"><ele>348.42857142857144</ele><time>2026-03-22T11:56:20.968Z</time></trkpt><trkpt lat="45.5683586" lon="11.3170615"><ele>350.57142857142856</ele><time>2026-03-22T11:59:33.013Z</time></trkpt><trkpt lat="45.5683975" lon="11.316979"><ele>352.7142857142857</ele><time>2026-03-22T12:00:41.008Z</time></trkpt><trkpt lat="45.56846" lon="11.3169389"><ele>354.85714285714283</ele><time>2026-03-22T12:00:46.048Z</time></trkpt><trkpt lat="45.5685206" lon="11.316904"><ele>357.0</ele><time>2026-03-22T12:00:51.032Z</time></trkpt><trkpt lat="45.5685904" lon="11.3168559"><ele>357.0</ele><time>2026-03-22T12:00:56.017Z</time></trkpt><trkpt lat="45.5686463" lon="11.3167888"><ele>357.0</ele><time>2026-03-22T12:01:02.022Z</time></trkpt><trkpt lat="45.568702" lon="11.3167422"><ele>357.0</ele><time>2026-03-22T12:01:08.026Z</time></trkpt><trkpt lat="45.5687242" lon="11.3166446"><ele>357.0</ele><time>2026-03-22T12:01:16.07Z</time></trkpt><trkpt lat="45.5687439" lon="11.3167329"><ele>357.0</ele><time>2026-03-22T12:01:37.947Z</time></trkpt><trkpt lat="45.5686774" lon="11.3167429"><ele>357.0</ele><time>2026-03-22T12:01:44.053Z</time></trkpt><trkpt lat="45.5686381" lon="11.3168296"><ele>357.0</ele><time>2026-03-22T12:01:52.079Z</time></trkpt><trkpt lat="45.5685989" lon="11.3169177"><ele>357.0</ele><time>2026-03-22T12:01:58.924Z</time></trkpt><trkpt lat="45.5685478" lon="11.3169921"><ele>357.0</ele><time>2026-03-22T12:02:06.031Z</time></trkpt><trkpt lat="45.5684899" lon="11.3170278"><ele>357.0</ele><time>2026-03-22T12:02:13.968Z</time></trkpt><trkpt lat="45.5684194" lon="11.3170171"><ele>357.0</ele><time>2026-03-22T12:02:43.963Z</time></trkpt><trkpt lat="45.5683652" lon="11.317063"><ele>357.0</ele><time>2026-03-22T12:05:38.908Z</time></trkpt><trkpt lat="45.568405" lon="11.316985"><ele>357.0</ele><time>2026-03-22T12:10:31.968Z</time></trkpt><trkpt lat="45.568335" lon="11.31706"><ele>357.0</ele><time>2026-03-22T12:11:25.967Z</time></trkpt><trkpt lat="45.5682677" lon="11.3171514"><ele>357.0</ele><time>2026-03-22T12:12:56.052Z</time></trkpt><trkpt lat="45.568175" lon="11.3171433"><ele>357.0</ele><time>2026-03-22T12:13:59.966Z</time></trkpt><trkpt lat="45.5681117" lon="11.3171667"><ele>357.0</ele><time>2026-03-22T12:14:07.966Z</time></trkpt><trkpt lat="45.5680683" lon="11.317235"><ele>357.0</ele><time>2026-03-22T12:14:24.967Z</time></trkpt><trkpt lat="45.568005" lon="11.3172483"><ele>357.0</ele><time>2026-03-22T12:14:30.967Z</time></trkpt><trkpt lat="45.5679367" lon="11.3172567"><ele>357.0</ele><time>2026-03-22T12:14:33.968Z</time></trkpt><trkpt lat="45.567875" lon="11.317295"><ele>357.0</ele><time>2026-03-22T12:14:37.968Z</time></trkpt><trkpt lat="45.5679105" lon="11.317214"><ele>357.0</ele><time>2026-03-22T12:16:22.964Z</time></trkpt><trkpt lat="45.567882" lon="11.317123"><ele>357.0</ele><time>2026-03-22T12:16:42.057Z</time></trkpt><trkpt lat="45.5678524" lon="11.3170387"><ele>357.0</ele><time>2026-03-22T12:16:51.022Z</time></trkpt><trkpt lat="45.5679045" lon="11.3170946"><ele>357.0</ele><time>2026-03-22T12:16:58.981Z</time></trkpt><trkpt lat="45.5679515" lon="11.3171571"><ele>357.0</ele><time>2026-03-22T12:17:06.961Z</time></trkpt><trkpt lat="45.5679729" lon="11.3172448"><ele>357.0</ele><time>2026-03-22T12:17:14.062Z</time></trkpt><trkpt lat="45.5680261" lon="11.3173124"><ele>357.0</ele><time>2026-03-22T12:17:29.023Z</time></trkpt><trkpt lat="45.5679908" lon="11.3172364"><ele>357.0</ele><time>2026-03-22T12:17:54.057Z</time></trkpt><trkpt lat="45.5679253" lon="11.3172174"><ele>357.0</ele><time>2026-03-22T12:18:01.011Z</time></trkpt></trkseg><trkseg><trkpt lat="45.5726967" lon="11.313935"><ele>422.0</ele><time>2026-03-22T13:01:32.047Z</time></trkpt><trkpt lat="45.57279" lon="11.3139383"><ele>422.0</ele><time>2026-03-22T13:02:45.968Z</time></trkpt><trkpt lat="45.5727233" lon="11.313885"><ele>422.0</ele><time>2026-03-22T13:03:25.965Z</time></trkpt><trkpt lat="45.5726683" lon="11.3138367"><ele>422.0</ele><time>2026-03-22T13:03:27.966Z</time></trkpt><trkpt lat="45.5726133" lon="11.313775"><ele>422.0</ele><time>2026-03-22T13:03:29.968Z</time></trkpt><trkpt lat="45.5725567" lon="11.3137"><ele>422.0</ele><time>2026-03-22T13:03:31.966Z</time></trkpt><trkpt lat="45.572505" lon="11.31364"><ele>422.0</ele><time>2026-03-22T13:03:33.967Z</time></trkpt><trkpt lat="45.57248" lon="11.3135217"><ele>423.66666666666663</ele><time>2026-03-22T13:03:37.967Z</time></trkpt><trkpt lat="45.572485" lon="11.313425"><ele>425.3333333333333</ele><time>2026-03-22T13:03:39.967Z</time></trkpt><trkpt lat="45.5724633" lon="11.3133017"><ele>427.0</ele><time>2026-03-22T13:03:41.967Z</time></trkpt><trkpt lat="45.5724367" lon="11.31318"><ele>428.66666666666663</ele><time>2026-03-22T13:03:43.964Z</time></trkpt><trkpt lat="45.57241" lon="11.3130617"><ele>430.3333333333333</ele><time>2026-03-22T13:03:45.967Z</time></trkpt><trkpt lat="45.5723717" lon="11.3129283"><ele>432.0</ele><time>2026-03-22T13:03:47.967Z</time></trkpt><trkpt lat="45.5723467" lon="11.3127633"><ele>435.25</ele><time>2026-03-22T13:03:49.969Z</time></trkpt><trkpt lat="45.5723783" lon="11.3126"><ele>438.5</ele><time>2026-03-22T13:03:51.964Z</time></trkpt><trkpt lat="45.57245" lon="11.3124783"><ele>441.75</ele><time>2026-03-22T13:03:53.967Z</time></trkpt><trkpt lat="45.5725583" lon="11.3124633"><ele>445.0</ele><time>2026-03-22T13:03:55.967Z</time></trkpt><trkpt lat="45.5726717" lon="11.31248"><ele>445.00000000000006</ele><time>2026-03-22T13:03:57.968Z</time></trkpt><trkpt lat="45.5727567" lon="11.312515"><ele>445.0</ele><time>2026-03-22T13:03:59.968Z</time></trkpt><trkpt lat="45.572825" lon="11.31249"><ele>445.0</ele><time>2026-03-22T13:04:02.965Z</time></trkpt><trkpt lat="45.572805" lon="11.3123533"><ele>445.0</ele><time>2026-03-22T13:04:05.967Z</time></trkpt><trkpt lat="45.572815" lon="11.3122283"><ele>445.00000000000006</ele><time>2026-03-22T13:04:07.967Z</time></trkpt><trkpt lat="45.5728567" lon="11.312095"><ele>445.0</ele><time>2026-03-22T13:04:09.966Z</time></trkpt><trkpt lat="45.572895" lon="11.3120017"><ele>448.6666666666667</ele><time>2026-03-22T13:04:11.965Z</time></trkpt><trkpt lat="45.5729767" lon="11.3119783"><ele>452.33333333333337</ele><time>2026-03-22T13:04:16.967Z</time></trkpt><trkpt lat="45.5730333" lon="11.3118883"><ele>456.0</ele><time>2026-03-22T13:04:20.968Z</time></trkpt><trkpt lat="45.57309" lon="11.311775"><ele>459.66666666666663</ele><time>2026-03-22T13:04:23.967Z</time></trkpt><trkpt lat="45.5731233" lon="11.311685"><ele>463.3333333333333</ele><time>2026-03-22T13:04:26.967Z</time></trkpt><trkpt lat="45.5731667" lon="11.3115933"><ele>467.0</ele><time>2026-03-22T13:04:32.968Z</time></trkpt><trkpt lat="45.5731967" lon="11.31148"><ele>467.66666666666663</ele><time>2026-03-22T13:04:36.964Z</time></trkpt><trkpt lat="45.573215" lon="11.3113917"><ele>468.3333333333333</ele><time>2026-03-22T13:04:42.967Z</time></trkpt><trkpt lat="45.57324" lon="11.3112767"><ele>469.0</ele><time>2026-03-22T13:04:50.967Z</time></trkpt><trkpt lat="45.5732417" lon="11.3111533"><ele>469.66666666666663</ele><time>2026-03-22T13:04:53.969Z</time></trkpt><trkpt lat="45.5732567" lon="11.3110467"><ele>470.3333333333333</ele><time>2026-03-22T13:04:55.967Z</time></trkpt><trkpt lat="45.5732733" lon="11.3109217"><ele>471.0</ele><time>2026-03-22T13:04:57.964Z</time></trkpt><trkpt lat="45.5732933" lon="11.3107917"><ele>471.0</ele><time>2026-03-22T13:04:59.97Z</time></trkpt><trkpt lat="45.5733083" lon="11.3106767"><ele>471.0</ele><time>2026-03-22T13:05:01.967Z</time></trkpt><trkpt lat="45.5733283" lon="11.310565"><ele>471.0</ele><time>2026-03-22T13:05:03.968Z</time></trkpt><trkpt lat="45.5733567" lon="11.310455"><ele>471.0</ele><time>2026-03-22T13:05:05.967Z</time></trkpt><trkpt lat="45.5734017" lon="11.3103267"><ele>471.0</ele><time>2026-03-22T13:05:07.966Z</time></trkpt><trkpt lat="45.5734317" lon="11.31024"><ele>471.0</ele><time>2026-03-22T13:05:08.969Z</time></trkpt><trkpt lat="45.5735067" lon="11.3101117"><ele>472.0</ele><time>2026-03-22T13:05:10.969Z</time></trkpt><trkpt lat="45.57358" lon="11.3100183"><ele>473.0</ele><time>2026-03-22T13:05:12.967Z</time></trkpt><trkpt lat="45.5736367" lon="11.3099167"><ele>474.0</ele><time>2026-03-22T13:05:14.967Z</time></trkpt><trkpt lat="45.57368" lon="11.3098433"><ele>475.0</ele><time>2026-03-22T13:05:16.967Z</time></trkpt><trkpt lat="45.5737167" lon="11.30976"><ele>476.0</ele><time>2026-03-22T13:05:19.967Z</time></trkpt><trkpt lat="45.5737317" lon="11.30967"><ele>477.0</ele><time>2026-03-22T13:05:27.966Z</time></trkpt><trkpt lat="45.5736833" lon="11.3096033"><ele>480.8333333333333</ele><time>2026-03-22T13:06:38.969Z</time></trkpt><trkpt lat="45.5736467" lon="11.3095067"><ele>484.66666666666663</ele><time>2026-03-22T13:06:40.969Z</time></trkpt><trkpt lat="45.5735883" lon="11.3094117"><ele>488.5</ele><time>2026-03-22T13:06:43.967Z</time></trkpt><trkpt lat="45.573535" lon="11.3093017"><ele>492.3333333333333</ele><time>2026-03-22T13:06:46.968Z</time></trkpt><trkpt lat="45.5734683" lon="11.3092167"><ele>496.16666666666663</ele><time>2026-03-22T13:06:48.969Z</time></trkpt><trkpt lat="45.5734083" lon="11.30914"><ele>500.0</ele><time>2026-03-22T13:06:50.966Z</time></trkpt><trkpt lat="45.5733483" lon="11.3090917"><ele>500.0</ele><time>2026-03-22T13:06:53.967Z</time></trkpt><trkpt lat="45.5732767" lon="11.3090783"><ele>500.0</ele><time>2026-03-22T13:06:56.967Z</time></trkpt><trkpt lat="45.5732017" lon="11.3090933"><ele>500.0</ele><time>2026-03-22T13:06:59.968Z</time></trkpt><trkpt lat="45.573125" lon="11.3090817"><ele>500.0</ele><time>2026-03-22T13:07:03.966Z</time></trkpt><trkpt lat="45.5730617" lon="11.3090567"><ele>500.0</ele><time>2026-03-22T13:07:05.966Z</time></trkpt><trkpt lat="45.57299" lon="11.30904"><ele>500.0</ele><time>2026-03-22T13:07:07.969Z</time></trkpt><trkpt lat="45.572905" lon="11.3090517"><ele>500.0</ele><time>2026-03-22T13:07:09.969Z</time></trkpt><trkpt lat="45.5728083" lon="11.309065"><ele>499.75</ele><time>2026-03-22T13:07:11.965Z</time></trkpt><trkpt lat="45.5727" lon="11.3090617"><ele>499.5</ele><time>2026-03-22T13:07:13.966Z</time></trkpt><trkpt lat="45.5725467" lon="11.3090867"><ele>499.25</ele><time>2026-03-22T13:07:14.967Z</time></trkpt><trkpt lat="45.5724467" lon="11.3090817"><ele>499.0</ele><time>2026-03-22T13:07:16.967Z</time></trkpt><trkpt lat="45.57235" lon="11.3090533"><ele>499.00000000000006</ele><time>2026-03-22T13:07:18.967Z</time></trkpt><trkpt lat="45.57225" lon="11.309005"><ele>499.0</ele><time>2026-03-22T13:07:20.967Z</time></trkpt><trkpt lat="45.5721867" lon="11.3089817"><ele>499.00000000000006</ele><time>2026-03-22T13:07:21.967Z</time></trkpt><trkpt lat="45.572125" lon="11.3089517"><ele>499.00000000000006</ele><time>2026-03-22T13:07:22.967Z</time></trkpt><trkpt lat="45.5720617" lon="11.3089167"><ele>499.0</ele><time>2026-03-22T13:07:23.968Z</time></trkpt><trkpt lat="45.572005" lon="11.308875"><ele>499.00000000000006</ele><time>2026-03-22T13:07:24.967Z</time></trkpt><trkpt lat="45.5719317" lon="11.3088467"><ele>499.00000000000006</ele><time>2026-03-22T13:07:25.967Z</time></trkpt><trkpt lat="45.5718517" lon="11.3088183"><ele>499.83333333333337</ele><time>2026-03-22T13:07:27.968Z</time></trkpt><trkpt lat="45.5717867" lon="11.308815"><ele>500.6666666666667</ele><time>2026-03-22T13:07:32.967Z</time></trkpt><trkpt lat="45.57181" lon="11.3087267"><ele>501.5</ele><time>2026-03-22T13:09:27.965Z</time></trkpt><trkpt lat="45.5719033" lon="11.3086783"><ele>502.33333333333337</ele><time>2026-03-22T13:09:29.965Z</time></trkpt><trkpt lat="45.572005" lon="11.3086267"><ele>503.1666666666667</ele><time>2026-03-22T13:09:31.967Z</time></trkpt><trkpt lat="45.57206" lon="11.3085633"><ele>504.0</ele><time>2026-03-22T13:09:33.966Z</time></trkpt><trkpt lat="45.5720717" lon="11.3084383"><ele>506.0</ele><time>2026-03-22T13:09:35.964Z</time></trkpt><trkpt lat="45.57205" lon="11.3083133"><ele>508.0</ele><time>2026-03-22T13:09:37.967Z</time></trkpt><trkpt lat="45.5720583" lon="11.30822"><ele>510.0</ele><time>2026-03-22T13:09:42.964Z</time></trkpt><trkpt lat="45.5720617" lon="11.3081117"><ele>512.0</ele><time>2026-03-22T13:09:58.968Z</time></trkpt><trkpt lat="45.5720267" lon="11.3080033"><ele>514.0</ele><time>2026-03-22T13:10:00.965Z</time></trkpt><trkpt lat="45.5720117" lon="11.30789"><ele>516.0</ele><time>2026-03-22T13:10:03.967Z</time></trkpt><trkpt lat="45.572105" lon="11.3078517"><ele>520.0</ele><time>2026-03-22T13:10:06.969Z</time></trkpt><trkpt lat="45.572185" lon="11.3078667"><ele>524.0</ele><time>2026-03-22T13:10:08.967Z</time></trkpt><trkpt lat="45.5722633" lon="11.307895"><ele>528.0</ele><time>2026-03-22T13:10:10.967Z</time></trkpt><trkpt lat="45.5724067" lon="11.3078733"><ele>532.0</ele><time>2026-03-22T13:10:14.965Z</time></trkpt><trkpt lat="45.5724833" lon="11.3078083"><ele>536.0</ele><time>2026-03-22T13:10:16.966Z</time></trkpt><trkpt lat="45.5725517" lon="11.30772"><ele>536.0</ele><time>2026-03-22T13:10:18.969Z</time></trkpt><trkpt lat="45.5726333" lon="11.307625"><ele>536.0</ele><time>2026-03-22T13:10:20.968Z</time></trkpt><trkpt lat="45.5727167" lon="11.3075267"><ele>536.0</ele><time>2026-03-22T13:10:22.967Z</time></trkpt><trkpt lat="45.5728067" lon="11.3074233"><ele>536.0</ele><time>2026-03-22T13:10:24.967Z</time></trkpt><trkpt lat="45.5728867" lon="11.3073067"><ele>536.0</ele><time>2026-03-22T13:10:26.969Z</time></trkpt><trkpt lat="45.5729317" lon="11.3071767"><ele>539.75</ele><time>2026-03-22T13:10:28.967Z</time></trkpt><trkpt lat="45.5729383" lon="11.3069983"><ele>543.5</ele><time>2026-03-22T13:10:30.967Z</time></trkpt><trkpt lat="45.5729233" lon="11.30683"><ele>547.25</ele><time>2026-03-22T13:10:32.967Z</time></trkpt><trkpt lat="45.57289" lon="11.30667"><ele>551.0</ele><time>2026-03-22T13:10:34.966Z</time></trkpt><trkpt lat="45.5728683" lon="11.3065233"><ele>549.6</ele><time>2026-03-22T13:10:36.967Z</time></trkpt><trkpt lat="45.5728467" lon="11.306385"><ele>548.2</ele><time>2026-03-22T13:10:38.969Z</time></trkpt><trkpt lat="45.5728517" lon="11.3062733"><ele>546.8</ele><time>2026-03-22T13:10:40.968Z</time></trkpt><trkpt lat="45.5729317" lon="11.30627"><ele>545.4</ele><time>2026-03-22T13:10:44.97Z</time></trkpt><trkpt lat="45.57304" lon="11.3061083"><ele>544.0</ele><time>2026-03-22T13:10:46.966Z</time></trkpt><trkpt lat="45.5730967" lon="11.3060117"><ele>546.5</ele><time>2026-03-22T13:10:47.967Z</time></trkpt><trkpt lat="45.5731417" lon="11.3059383"><ele>549.0</ele><time>2026-03-22T13:10:48.965Z</time></trkpt><trkpt lat="45.5732033" lon="11.3058583"><ele>551.5</ele><time>2026-03-22T13:10:50.967Z</time></trkpt><trkpt lat="45.5732633" lon="11.30578"><ele>554.0</ele><time>2026-03-22T13:10:52.964Z</time></trkpt><trkpt lat="45.5733017" lon="11.3056933"><ele>556.5</ele><time>2026-03-22T13:10:56.967Z</time></trkpt><trkpt lat="45.5733233" lon="11.3055783"><ele>559.0</ele><time>2026-03-22T13:12:22.967Z</time></trkpt><trkpt lat="45.5732967" lon="11.3054933"><ele>560.3333333333334</ele><time>2026-03-22T13:12:24.966Z</time></trkpt><trkpt lat="45.5732633" lon="11.305415"><ele>561.6666666666667</ele><time>2026-03-22T13:12:26.967Z</time></trkpt><trkpt lat="45.5732333" lon="11.30532"><ele>563.0</ele><time>2026-03-22T13:12:28.965Z</time></trkpt><trkpt lat="45.5732117" lon="11.3052033"><ele>564.3333333333334</ele><time>2026-03-22T13:12:30.967Z</time></trkpt><trkpt lat="45.5732033" lon="11.3050833"><ele>565.6666666666666</ele><time>2026-03-22T13:12:32.967Z</time></trkpt><trkpt lat="45.57319" lon="11.3049267"><ele>567.0</ele><time>2026-03-22T13:12:34.968Z</time></trkpt><trkpt lat="45.573175" lon="11.304835"><ele>569.3333333333334</ele><time>2026-03-22T13:12:35.966Z</time></trkpt><trkpt lat="45.5731367" lon="11.3046733"><ele>571.6666666666666</ele><time>2026-03-22T13:12:37.967Z</time></trkpt><trkpt lat="45.5731317" lon="11.3045567"><ele>574.0</ele><time>2026-03-22T13:12:39.968Z</time></trkpt><trkpt lat="45.5731683" lon="11.3044617"><ele>576.3333333333333</ele><time>2026-03-22T13:12:41.965Z</time></trkpt><trkpt lat="45.573235" lon="11.30441"><ele>578.6666666666666</ele><time>2026-03-22T13:12:43.966Z</time></trkpt><trkpt lat="45.5733183" lon="11.304425"><ele>581.0</ele><time>2026-03-22T13:12:45.967Z</time></trkpt><trkpt lat="45.5733883" lon="11.3044567"><ele>581.0</ele><time>2026-03-22T13:12:47.968Z</time></trkpt><trkpt lat="45.5734783" lon="11.30448"><ele>581.0</ele><time>2026-03-22T13:12:50.966Z</time></trkpt><trkpt lat="45.5735333" lon="11.3043783"><ele>581.0</ele><time>2026-03-22T13:12:53.967Z</time></trkpt><trkpt lat="45.5735183" lon="11.3042567"><ele>581.0</ele><time>2026-03-22T13:12:55.967Z</time></trkpt><trkpt lat="45.5734533" lon="11.3041183"><ele>581.0</ele><time>2026-03-22T13:12:57.966Z</time></trkpt><trkpt lat="45.5733817" lon="11.30398"><ele>584.1666666666666</ele><time>2026-03-22T13:12:59.967Z</time></trkpt><trkpt lat="45.573295" lon="11.3038367"><ele>587.3333333333333</ele><time>2026-03-22T13:13:01.967Z</time></trkpt><trkpt lat="45.5732467" lon="11.30377"><ele>590.5</ele><time>2026-03-22T13:13:02.968Z</time></trkpt><trkpt lat="45.5732033" lon="11.3036833"><ele>593.6666666666666</ele><time>2026-03-22T13:13:03.967Z</time></trkpt><trkpt lat="45.57316" lon="11.3035917"><ele>596.8333333333334</ele><time>2026-03-22T13:13:04.967Z</time></trkpt><trkpt lat="45.5731217" lon="11.3035117"><ele>600.0</ele><time>2026-03-22T13:13:05.966Z</time></trkpt><trkpt lat="45.573085" lon="11.303435"><ele>600.0</ele><time>2026-03-22T13:13:06.968Z</time></trkpt><trkpt lat="45.5730233" lon="11.3032783"><ele>600.0</ele><time>2026-03-22T13:13:08.967Z</time></trkpt><trkpt lat="45.5729717" lon="11.3031267"><ele>600.0</ele><time>2026-03-22T13:13:10.967Z</time></trkpt><trkpt lat="45.5729433" lon="11.303035"><ele>600.0</ele><time>2026-03-22T13:13:11.967Z</time></trkpt><trkpt lat="45.57291" lon="11.302935"><ele>600.0</ele><time>2026-03-22T13:13:12.967Z</time></trkpt><trkpt lat="45.572875" lon="11.3028533"><ele>599.8571428571428</ele><time>2026-03-22T13:13:13.969Z</time></trkpt><trkpt lat="45.5728467" lon="11.3027667"><ele>599.7142857142857</ele><time>2026-03-22T13:13:14.968Z</time></trkpt><trkpt lat="45.5728217" lon="11.3026717"><ele>599.5714285714286</ele><time>2026-03-22T13:13:15.966Z</time></trkpt><trkpt lat="45.5728017" lon="11.3025683"><ele>599.4285714285713</ele><time>2026-03-22T13:13:16.966Z</time></trkpt><trkpt lat="45.57278" lon="11.3024667"><ele>599.2857142857142</ele><time>2026-03-22T13:13:17.967Z</time></trkpt><trkpt lat="45.5727583" lon="11.3023667"><ele>599.1428571428571</ele><time>2026-03-22T13:13:18.967Z</time></trkpt><trkpt lat="45.5727417" lon="11.3022617"><ele>599.0</ele><time>2026-03-22T13:13:19.965Z</time></trkpt><trkpt lat="45.572725" lon="11.302155"><ele>599.0</ele><time>2026-03-22T13:13:20.969Z</time></trkpt><trkpt lat="45.572705" lon="11.3020533"><ele>599.0</ele><time>2026-03-22T13:13:21.968Z</time></trkpt><trkpt lat="45.5726917" lon="11.3019567"><ele>599.0</ele><time>2026-03-22T13:13:22.965Z</time></trkpt><trkpt lat="45.5726683" lon="11.3018667"><ele>599.0</ele><time>2026-03-22T13:13:23.965Z</time></trkpt><trkpt lat="45.5726333" lon="11.30171"><ele>599.0</ele><time>2026-03-22T13:13:25.965Z</time></trkpt><trkpt lat="45.572615" lon="11.301595"><ele>599.0</ele><time>2026-03-22T13:13:27.964Z</time></trkpt><trkpt lat="45.5726533" lon="11.30151"><ele>599.0</ele><time>2026-03-22T13:13:29.965Z</time></trkpt><trkpt lat="45.57273" lon="11.30147"><ele>599.0</ele><time>2026-03-22T13:13:31.965Z</time></trkpt><trkpt lat="45.5728083" lon="11.301415"><ele>599.0</ele><time>2026-03-22T13:13:33.967Z</time></trkpt><trkpt lat="45.5729067" lon="11.3013733"><ele>599.0</ele><time>2026-03-22T13:13:35.963Z</time></trkpt><trkpt lat="45.5730117" lon="11.3013783"><ele>599.0</ele><time>2026-03-22T13:13:37.964Z</time></trkpt><trkpt lat="45.5731083" lon="11.3014117"><ele>601.8333333333333</ele><time>2026-03-22T13:13:39.964Z</time></trkpt><trkpt lat="45.5731933" lon="11.301415"><ele>604.6666666666666</ele><time>2026-03-22T13:13:41.964Z</time></trkpt><trkpt lat="45.57327" lon="11.30139"><ele>607.5</ele><time>2026-03-22T13:13:43.966Z</time></trkpt><trkpt lat="45.5733383" lon="11.3013483"><ele>610.3333333333334</ele><time>2026-03-22T13:13:45.967Z</time></trkpt><trkpt lat="45.5734117" lon="11.3013517"><ele>613.1666666666667</ele><time>2026-03-22T13:13:49.967Z</time></trkpt><trkpt lat="45.573465" lon="11.30142"><ele>616.0</ele><time>2026-03-22T13:13:53.055Z</time></trkpt><trkpt lat="45.5735467" lon="11.301465"><ele>616.0</ele><time>2026-03-22T13:13:54.966Z</time></trkpt><trkpt lat="45.5736083" lon="11.30149"><ele>616.0</ele><time>2026-03-22T13:13:56.967Z</time></trkpt><trkpt lat="45.5736717" lon="11.3014867"><ele>616.0</ele><time>2026-03-22T13:14:04.967Z</time></trkpt><trkpt lat="45.57372" lon="11.3014267"><ele>616.0</ele><time>2026-03-22T13:16:54.963Z</time></trkpt><trkpt lat="45.5736883" lon="11.301345"><ele>616.0</ele><time>2026-03-22T13:22:43.966Z</time></trkpt><trkpt lat="45.5737067" lon="11.30147"><ele>616.0</ele><time>2026-03-22T13:22:44.97Z</time></trkpt><trkpt lat="45.5737767" lon="11.30144"><ele>616.0</ele><time>2026-03-22T13:24:59.967Z</time></trkpt><trkpt lat="45.5738167" lon="11.301355"><ele>618.6666666666667</ele><time>2026-03-22T13:25:04.968Z</time></trkpt><trkpt lat="45.57384" lon="11.3012517"><ele>621.3333333333334</ele><time>2026-03-22T13:25:09.967Z</time></trkpt><trkpt lat="45.57389" lon="11.3011967"><ele>624.0</ele><time>2026-03-22T13:25:12.969Z</time></trkpt><trkpt lat="45.573935" lon="11.3011"><ele>626.6666666666666</ele><time>2026-03-22T13:25:18.967Z</time></trkpt><trkpt lat="45.5739583" lon="11.3009733"><ele>629.3333333333333</ele><time>2026-03-22T13:25:20.965Z</time></trkpt><trkpt lat="45.5739967" lon="11.3008633"><ele>632.0</ele><time>2026-03-22T13:25:22.966Z</time></trkpt><trkpt lat="45.5740367" lon="11.300765"><ele>632.0</ele><time>2026-03-22T13:25:24.967Z</time></trkpt><trkpt lat="45.57406" lon="11.3005883"><ele>632.0</ele><time>2026-03-22T13:25:26.966Z</time></trkpt><trkpt lat="45.5740633" lon="11.3004933"><ele>632.0</ele><time>2026-03-22T13:25:28.965Z</time></trkpt><trkpt lat="45.5740867" lon="11.3003533"><ele>632.0</ele><time>2026-03-22T13:25:30.967Z</time></trkpt><trkpt lat="45.5741083" lon="11.3001983"><ele>632.0</ele><time>2026-03-22T13:25:33.967Z</time></trkpt><trkpt lat="45.5741283" lon="11.3000917"><ele>633.0</ele><time>2026-03-22T13:25:35.966Z</time></trkpt><trkpt lat="45.5741567" lon="11.2999633"><ele>634.0</ele><time>2026-03-22T13:25:37.966Z</time></trkpt><trkpt lat="45.5741817" lon="11.2997817"><ele>635.0</ele><time>2026-03-22T13:25:39.968Z</time></trkpt><trkpt lat="45.5741833" lon="11.29969"><ele>636.0</ele><time>2026-03-22T13:25:40.966Z</time></trkpt><trkpt lat="45.5741883" lon="11.2995933"><ele>637.0</ele><time>2026-03-22T13:25:41.966Z</time></trkpt><trkpt lat="45.574185" lon="11.2994767"><ele>638.0</ele><time>2026-03-22T13:25:42.967Z</time></trkpt><trkpt lat="45.5741967" lon="11.2993183"><ele>638.8333333333333</ele><time>2026-03-22T13:25:44.967Z</time></trkpt><trkpt lat="45.5742117" lon="11.29921"><ele>639.6666666666666</ele><time>2026-03-22T13:25:46.967Z</time></trkpt><trkpt lat="45.5742233" lon="11.2991133"><ele>640.5</ele><time>2026-03-22T13:25:47.968Z</time></trkpt><trkpt lat="45.5742267" lon="11.2990167"><ele>641.3333333333334</ele><time>2026-03-22T13:25:48.968Z</time></trkpt><trkpt lat="45.57425" lon="11.2988567"><ele>642.1666666666667</ele><time>2026-03-22T13:25:50.969Z</time></trkpt><trkpt lat="45.5742583" lon="11.298745"><ele>643.0</ele><time>2026-03-22T13:25:51.967Z</time></trkpt><trkpt lat="45.57432" lon="11.29862"><ele>643.8</ele><time>2026-03-22T13:25:53.968Z</time></trkpt><trkpt lat="45.574355" lon="11.298505"><ele>644.5999999999999</ele><time>2026-03-22T13:25:54.968Z</time></trkpt><trkpt lat="45.57439" lon="11.29839"><ele>645.4000000000001</ele><time>2026-03-22T13:25:55.967Z</time></trkpt><trkpt lat="45.5744567" lon="11.2981967"><ele>646.2</ele><time>2026-03-22T13:25:57.967Z</time></trkpt><trkpt lat="45.5744767" lon="11.2980933"><ele>647.0</ele><time>2026-03-22T13:25:58.967Z</time></trkpt><trkpt lat="45.5744833" lon="11.2979883"><ele>647.8333333333333</ele><time>2026-03-22T13:25:59.968Z</time></trkpt><trkpt lat="45.5744917" lon="11.2978567"><ele>648.6666666666666</ele><time>2026-03-22T13:26:00.97Z</time></trkpt><trkpt lat="45.5745067" lon="11.2977417"><ele>649.5</ele><time>2026-03-22T13:26:01.966Z</time></trkpt><trkpt lat="45.5745267" lon="11.2976433"><ele>650.3333333333334</ele><time>2026-03-22T13:26:02.968Z</time></trkpt><trkpt lat="45.5745567" lon="11.2975383"><ele>651.1666666666667</ele><time>2026-03-22T13:26:03.967Z</time></trkpt><trkpt lat="45.5745783" lon="11.297425"><ele>652.0</ele><time>2026-03-22T13:26:04.968Z</time></trkpt><trkpt lat="45.5745967" lon="11.2973367"><ele>655.8</ele><time>2026-03-22T13:26:05.969Z</time></trkpt><trkpt lat="45.574625" lon="11.297165"><ele>659.6</ele><time>2026-03-22T13:26:07.967Z</time></trkpt><trkpt lat="45.5746417" lon="11.29705"><ele>663.4</ele><time>2026-03-22T13:26:08.968Z</time></trkpt><trkpt lat="45.5746667" lon="11.296955"><ele>667.1999999999999</ele><time>2026-03-22T13:26:09.967Z</time></trkpt><trkpt lat="45.5746933" lon="11.2968667"><ele>671.0</ele><time>2026-03-22T13:26:10.967Z</time></trkpt><trkpt lat="45.574765" lon="11.296745"><ele>671.0</ele><time>2026-03-22T13:26:12.968Z</time></trkpt><trkpt lat="45.5748533" lon="11.296645"><ele>671.0</ele><time>2026-03-22T13:26:14.968Z</time></trkpt><trkpt lat="45.5749283" lon="11.2965217"><ele>671.0</ele><time>2026-03-22T13:26:15.967Z</time></trkpt><trkpt lat="45.5749833" lon="11.29647"><ele>671.0</ele><time>2026-03-22T13:26:16.967Z</time></trkpt><trkpt lat="45.5750667" lon="11.296365"><ele>671.0</ele><time>2026-03-22T13:26:18.967Z</time></trkpt><trkpt lat="45.5751217" lon="11.296315"><ele>671.8</ele><time>2026-03-22T13:26:23.966Z</time></trkpt><trkpt lat="45.575195" lon="11.296275"><ele>672.5999999999999</ele><time>2026-03-22T13:26:35.965Z</time></trkpt><trkpt lat="45.5752683" lon="11.2961483"><ele>673.4</ele><time>2026-03-22T13:26:38.967Z</time></trkpt><trkpt lat="45.5753367" lon="11.2960433"><ele>674.2</ele><time>2026-03-22T13:26:40.966Z</time></trkpt><trkpt lat="45.57539" lon="11.2959467"><ele>675.0</ele><time>2026-03-22T13:26:42.966Z</time></trkpt><trkpt lat="45.57543" lon="11.2957967"><ele>675.0</ele><time>2026-03-22T13:26:44.968Z</time></trkpt><trkpt lat="45.575445" lon="11.295665"><ele>675.0</ele><time>2026-03-22T13:26:46.967Z</time></trkpt><trkpt lat="45.5754767" lon="11.2955167"><ele>675.0</ele><time>2026-03-22T13:26:48.966Z</time></trkpt><trkpt lat="45.5755033" lon="11.2953867"><ele>675.0</ele><time>2026-03-22T13:26:50.967Z</time></trkpt><trkpt lat="45.5754883" lon="11.295275"><ele>675.0</ele><time>2026-03-22T13:26:52.966Z</time></trkpt><trkpt lat="45.5754633" lon="11.2951617"><ele>676.6</ele><time>2026-03-22T13:26:54.966Z</time></trkpt><trkpt lat="45.5754417" lon="11.2950333"><ele>678.2</ele><time>2026-03-22T13:26:56.965Z</time></trkpt><trkpt lat="45.5754817" lon="11.29491"><ele>679.8</ele><time>2026-03-22T13:26:58.967Z</time></trkpt><trkpt lat="45.5754983" lon="11.2947783"><ele>681.4</ele><time>2026-03-22T13:27:00.968Z</time></trkpt><trkpt lat="45.5755183" lon="11.2946283"><ele>683.0</ele><time>2026-03-22T13:27:02.966Z</time></trkpt><trkpt lat="45.5755633" lon="11.2944617"><ele>684.6666666666666</ele><time>2026-03-22T13:27:04.965Z</time></trkpt><trkpt lat="45.57562" lon="11.2943567"><ele>686.3333333333333</ele><time>2026-03-22T13:27:06.967Z</time></trkpt><trkpt lat="45.5756833" lon="11.2942533"><ele>688.0</ele><time>2026-03-22T13:27:08.968Z</time></trkpt><trkpt lat="45.5757467" lon="11.2941017"><ele>689.6666666666666</ele><time>2026-03-22T13:27:10.967Z</time></trkpt><trkpt lat="45.5757783" lon="11.2940217"><ele>691.3333333333334</ele><time>2026-03-22T13:27:11.965Z</time></trkpt><trkpt lat="45.57581" lon="11.2939383"><ele>693.0</ele><time>2026-03-22T13:27:12.966Z</time></trkpt><trkpt lat="45.5758533" lon="11.2938683"><ele>694.5</ele><time>2026-03-22T13:27:14.968Z</time></trkpt><trkpt lat="45.5759367" lon="11.2938217"><ele>696.0</ele><time>2026-03-22T13:27:16.966Z</time></trkpt><trkpt lat="45.5760433" lon="11.2937767"><ele>697.5</ele><time>2026-03-22T13:27:18.966Z</time></trkpt><trkpt lat="45.5761267" lon="11.29372"><ele>699.0</ele><time>2026-03-22T13:27:20.965Z</time></trkpt><trkpt lat="45.5761883" lon="11.2936667"><ele>700.5</ele><time>2026-03-22T13:27:22.968Z</time></trkpt><trkpt lat="45.5762417" lon="11.2936167"><ele>702.0</ele><time>2026-03-22T13:27:24.967Z</time></trkpt><trkpt lat="45.576305" lon="11.29353"><ele>702.0</ele><time>2026-03-22T13:27:27.966Z</time></trkpt><trkpt lat="45.5763533" lon="11.2934633"><ele>702.0</ele><time>2026-03-22T13:27:32.967Z</time></trkpt><trkpt lat="45.5763717" lon="11.2933567"><ele>702.0</ele><time>2026-03-22T13:27:41.966Z</time></trkpt><trkpt lat="45.57633" lon="11.29344"><ele>702.0</ele><time>2026-03-22T13:29:31.965Z</time></trkpt><trkpt lat="45.576245" lon="11.2935683"><ele>702.0</ele><time>2026-03-22T13:29:33.967Z</time></trkpt><trkpt lat="45.5761417" lon="11.2936483"><ele>702.5</ele><time>2026-03-22T13:29:35.965Z</time></trkpt><trkpt lat="45.57606" lon="11.2936867"><ele>703.0</ele><time>2026-03-22T13:29:37.965Z</time></trkpt><trkpt lat="45.5759917" lon="11.293735"><ele>703.5</ele><time>2026-03-22T13:29:40.967Z</time></trkpt><trkpt lat="45.57591" lon="11.293805"><ele>704.0</ele><time>2026-03-22T13:29:43.966Z</time></trkpt><trkpt lat="45.5758567" lon="11.293865"><ele>704.5</ele><time>2026-03-22T13:29:45.964Z</time></trkpt><trkpt lat="45.57581" lon="11.29398"><ele>705.0</ele><time>2026-03-22T13:29:47.966Z</time></trkpt><trkpt lat="45.5757467" lon="11.29413"><ele>703.0</ele><time>2026-03-22T13:29:49.966Z</time></trkpt><trkpt lat="45.5756767" lon="11.294255"><ele>701.0</ele><time>2026-03-22T13:29:51.967Z</time></trkpt><trkpt lat="45.5756317" lon="11.294345"><ele>699.0</ele><time>2026-03-22T13:29:53.966Z</time></trkpt><trkpt lat="45.5756017" lon="11.2944617"><ele>697.0</ele><time>2026-03-22T13:29:56.965Z</time></trkpt><trkpt lat="45.57558" lon="11.2945583"><ele>695.0</ele><time>2026-03-22T13:29:58.965Z</time></trkpt><trkpt lat="45.5755333" lon="11.2946233"><ele>693.0</ele><time>2026-03-22T13:30:00.967Z</time></trkpt><trkpt lat="45.57548" lon="11.2947117"><ele>691.3333333333334</ele><time>2026-03-22T13:30:03.967Z</time></trkpt><trkpt lat="45.575425" lon="11.2947917"><ele>689.6666666666666</ele><time>2026-03-22T13:30:06.967Z</time></trkpt><trkpt lat="45.5753733" lon="11.29485"><ele>688.0</ele><time>2026-03-22T13:30:09.966Z</time></trkpt><trkpt lat="45.5753117" lon="11.2949017"><ele>686.3333333333333</ele><time>2026-03-22T13:30:12.967Z</time></trkpt><trkpt lat="45.57523" lon="11.2949633"><ele>684.6666666666666</ele><time>2026-03-22T13:30:15.966Z</time></trkpt><trkpt lat="45.57515" lon="11.2949933"><ele>683.0</ele><time>2026-03-22T13:30:18.965Z</time></trkpt><trkpt lat="45.5750667" lon="11.2949733"><ele>682.5</ele><time>2026-03-22T13:30:22.966Z</time></trkpt><trkpt lat="45.5750033" lon="11.294955"><ele>682.0</ele><time>2026-03-22T13:30:25.966Z</time></trkpt><trkpt lat="45.5749267" lon="11.2949383"><ele>681.5</ele><time>2026-03-22T13:30:29.966Z</time></trkpt><trkpt lat="45.5748383" lon="11.2949367"><ele>681.0</ele><time>2026-03-22T13:30:34.968Z</time></trkpt><trkpt lat="45.574765" lon="11.2949033"><ele>680.5</ele><time>2026-03-22T13:30:36.967Z</time></trkpt><trkpt lat="45.574665" lon="11.2948567"><ele>680.0</ele><time>2026-03-22T13:30:38.97Z</time></trkpt><trkpt lat="45.5745467" lon="11.2948617"><ele>679.1666666666666</ele><time>2026-03-22T13:30:40.967Z</time></trkpt><trkpt lat="45.5744167" lon="11.29484"><ele>678.3333333333333</ele><time>2026-03-22T13:30:42.966Z</time></trkpt><trkpt lat="45.57434" lon="11.2948267"><ele>677.5</ele><time>2026-03-22T13:30:43.966Z</time></trkpt><trkpt lat="45.5742583" lon="11.2948183"><ele>676.6666666666666</ele><time>2026-03-22T13:30:44.967Z</time></trkpt><trkpt lat="45.5741783" lon="11.2948283"><ele>675.8333333333334</ele><time>2026-03-22T13:30:45.967Z</time></trkpt><trkpt lat="45.5741067" lon="11.294845"><ele>675.0</ele><time>2026-03-22T13:30:46.967Z</time></trkpt><trkpt lat="45.5740417" lon="11.2948633"><ele>675.0</ele><time>2026-03-22T13:30:47.966Z</time></trkpt><trkpt lat="45.5739783" lon="11.2948717"><ele>675.0</ele><time>2026-03-22T13:30:48.966Z</time></trkpt><trkpt lat="45.573855" lon="11.2949033"><ele>675.0</ele><time>2026-03-22T13:30:50.966Z</time></trkpt><trkpt lat="45.5737933" lon="11.2949233"><ele>675.0</ele><time>2026-03-22T13:30:51.966Z</time></trkpt><trkpt lat="45.573725" lon="11.2949383"><ele>675.0</ele><time>2026-03-22T13:30:52.966Z</time></trkpt><trkpt lat="45.573655" lon="11.2949533"><ele>675.0</ele><time>2026-03-22T13:30:53.967Z</time></trkpt><trkpt lat="45.5735783" lon="11.2949733"><ele>676.4</ele><time>2026-03-22T13:30:54.966Z</time></trkpt><trkpt lat="45.5735067" lon="11.2949933"><ele>677.8</ele><time>2026-03-22T13:30:55.967Z</time></trkpt><trkpt lat="45.5734083" lon="11.2949817"><ele>679.2</ele><time>2026-03-22T13:30:57.966Z</time></trkpt><trkpt lat="45.573335" lon="11.2949067"><ele>680.6</ele><time>2026-03-22T13:30:59.967Z</time></trkpt><trkpt lat="45.5732717" lon="11.2948083"><ele>682.0</ele><time>2026-03-22T13:31:01.967Z</time></trkpt><trkpt lat="45.5731967" lon="11.2946983"><ele>683.0</ele><time>2026-03-22T13:31:03.966Z</time></trkpt><trkpt lat="45.5731133" lon="11.2946217"><ele>684.0</ele><time>2026-03-22T13:31:05.968Z</time></trkpt><trkpt lat="45.5730117" lon="11.2946"><ele>685.0</ele><time>2026-03-22T13:31:07.967Z</time></trkpt><trkpt lat="45.572915" lon="11.2946"><ele>686.0</ele><time>2026-03-22T13:31:09.967Z</time></trkpt><trkpt lat="45.5728383" lon="11.2945767"><ele>687.0</ele><time>2026-03-22T13:31:11.965Z</time></trkpt><trkpt lat="45.5727933" lon="11.2945117"><ele>688.0</ele><time>2026-03-22T13:31:15.965Z</time></trkpt><trkpt lat="45.5728617" lon="11.29441"><ele>688.8333333333334</ele><time>2026-03-22T13:31:18.965Z</time></trkpt><trkpt lat="45.572905" lon="11.2943133"><ele>689.6666666666667</ele><time>2026-03-22T13:31:21.965Z</time></trkpt><trkpt lat="45.5729267" lon="11.294215"><ele>690.5</ele><time>2026-03-22T13:32:46.966Z</time></trkpt><trkpt lat="45.5729933" lon="11.2941183"><ele>691.3333333333334</ele><time>2026-03-22T13:32:49.964Z</time></trkpt><trkpt lat="45.5730567" lon="11.2940633"><ele>692.1666666666666</ele><time>2026-03-22T13:32:51.966Z</time></trkpt><trkpt lat="45.5731333" lon="11.294045"><ele>693.0</ele><time>2026-03-22T13:32:53.965Z</time></trkpt><trkpt lat="45.573225" lon="11.2940383"><ele>693.0</ele><time>2026-03-22T13:32:55.966Z</time></trkpt><trkpt lat="45.5733217" lon="11.2940333"><ele>693.0</ele><time>2026-03-22T13:32:57.966Z</time></trkpt><trkpt lat="45.5733933" lon="11.29407"><ele>693.0</ele><time>2026-03-22T13:33:00.967Z</time></trkpt><trkpt lat="45.5734567" lon="11.29404"><ele>693.0</ele><time>2026-03-22T13:33:02.968Z</time></trkpt><trkpt lat="45.573555" lon="11.2939933"><ele>693.0</ele><time>2026-03-22T13:33:04.967Z</time></trkpt><trkpt lat="45.5736617" lon="11.293965"><ele>692.0</ele><time>2026-03-22T13:33:06.967Z</time></trkpt><trkpt lat="45.57378" lon="11.2939283"><ele>691.0</ele><time>2026-03-22T13:33:08.967Z</time></trkpt><trkpt lat="45.5738633" lon="11.2939067"><ele>690.0</ele><time>2026-03-22T13:33:10.965Z</time></trkpt><trkpt lat="45.573925" lon="11.2938633"><ele>689.0</ele><time>2026-03-22T13:33:13.966Z</time></trkpt><trkpt lat="45.5739867" lon="11.2937633"><ele>688.0</ele><time>2026-03-22T13:33:15.966Z</time></trkpt><trkpt lat="45.5740367" lon="11.2936933"><ele>687.0</ele><time>2026-03-22T13:33:19.057Z</time></trkpt><trkpt lat="45.5740883" lon="11.2936383"><ele>689.8333333333334</ele><time>2026-03-22T13:33:20.967Z</time></trkpt><trkpt lat="45.57415" lon="11.293585"><ele>692.6666666666666</ele><time>2026-03-22T13:33:22.965Z</time></trkpt><trkpt lat="45.5742167" lon="11.293515"><ele>695.5</ele><time>2026-03-22T13:33:24.965Z</time></trkpt><trkpt lat="45.5742833" lon="11.2934567"><ele>698.3333333333333</ele><time>2026-03-22T13:33:26.967Z</time></trkpt><trkpt lat="45.57434" lon="11.2933933"><ele>701.1666666666666</ele><time>2026-03-22T13:33:27.966Z</time></trkpt><trkpt lat="45.5744083" lon="11.29333"><ele>704.0</ele><time>2026-03-22T13:33:28.967Z</time></trkpt><trkpt lat="45.5744733" lon="11.2932783"><ele>704.1666666666666</ele><time>2026-03-22T13:33:29.966Z</time></trkpt><trkpt lat="45.5745417" lon="11.2932317"><ele>704.3333333333333</ele><time>2026-03-22T13:33:30.967Z</time></trkpt><trkpt lat="45.57461" lon="11.293185"><ele>704.5</ele><time>2026-03-22T13:33:31.966Z</time></trkpt><trkpt lat="45.5746717" lon="11.2931417"><ele>704.6666666666666</ele><time>2026-03-22T13:33:32.966Z</time></trkpt><trkpt lat="45.5747367" lon="11.293105"><ele>704.8333333333334</ele><time>2026-03-22T13:33:33.966Z</time></trkpt><trkpt lat="45.5748433" lon="11.2930633"><ele>705.0</ele><time>2026-03-22T13:33:35.967Z</time></trkpt><trkpt lat="45.5749533" lon="11.2930083"><ele>707.5</ele><time>2026-03-22T13:33:37.967Z</time></trkpt><trkpt lat="45.5750133" lon="11.292965"><ele>710.0</ele><time>2026-03-22T13:33:38.967Z</time></trkpt><trkpt lat="45.575075" lon="11.2929117"><ele>712.5</ele><time>2026-03-22T13:33:39.967Z</time></trkpt><trkpt lat="45.575115" lon="11.2928283"><ele>715.0</ele><time>2026-03-22T13:33:41.969Z</time></trkpt><trkpt lat="45.5751083" lon="11.2926967"><ele>717.5</ele><time>2026-03-22T13:33:43.968Z</time></trkpt><trkpt lat="45.5751133" lon="11.2925617"><ele>720.0</ele><time>2026-03-22T13:33:45.967Z</time></trkpt><trkpt lat="45.5751333" lon="11.292415"><ele>720.0</ele><time>2026-03-22T13:33:47.968Z</time></trkpt><trkpt lat="45.5751683" lon="11.292305"><ele>720.0</ele><time>2026-03-22T13:33:49.967Z</time></trkpt><trkpt lat="45.5752183" lon="11.292225"><ele>720.0</ele><time>2026-03-22T13:33:51.964Z</time></trkpt><trkpt lat="45.5752833" lon="11.2921833"><ele>720.0</ele><time>2026-03-22T13:33:53.967Z</time></trkpt><trkpt lat="45.5753567" lon="11.29215"><ele>720.0</ele><time>2026-03-22T13:33:55.966Z</time></trkpt><trkpt lat="45.5754717" lon="11.2921"><ele>720.0</ele><time>2026-03-22T13:33:57.966Z</time></trkpt><trkpt lat="45.5755767" lon="11.29205"><ele>722.6666666666666</ele><time>2026-03-22T13:33:59.965Z</time></trkpt><trkpt lat="45.5756317" lon="11.2919633"><ele>725.3333333333334</ele><time>2026-03-22T13:34:01.967Z</time></trkpt><trkpt lat="45.57559" lon="11.2918367"><ele>728.0</ele><time>2026-03-22T13:34:04.967Z</time></trkpt><trkpt lat="45.5755567" lon="11.29175"><ele>730.6666666666667</ele><time>2026-03-22T13:34:06.967Z</time></trkpt><trkpt lat="45.5755567" lon="11.2916183"><ele>733.3333333333334</ele><time>2026-03-22T13:34:09.967Z</time></trkpt><trkpt lat="45.5756117" lon="11.2914967"><ele>736.0</ele><time>2026-03-22T13:34:11.965Z</time></trkpt><trkpt lat="45.575725" lon="11.2913917"><ele>737.8</ele><time>2026-03-22T13:34:13.965Z</time></trkpt><trkpt lat="45.5757867" lon="11.29134"><ele>739.5999999999999</ele><time>2026-03-22T13:34:14.966Z</time></trkpt><trkpt lat="45.5758867" lon="11.29128"><ele>741.4</ele><time>2026-03-22T13:34:16.967Z</time></trkpt><trkpt lat="45.5759717" lon="11.2911767"><ele>743.2</ele><time>2026-03-22T13:34:18.967Z</time></trkpt><trkpt lat="45.576" lon="11.2910417"><ele>745.0</ele><time>2026-03-22T13:34:20.968Z</time></trkpt><trkpt lat="45.5760067" lon="11.2909333"><ele>745.0</ele><time>2026-03-22T13:34:21.967Z</time></trkpt><trkpt lat="45.5760117" lon="11.2908233"><ele>745.0</ele><time>2026-03-22T13:34:22.967Z</time></trkpt><trkpt lat="45.5760183" lon="11.290705"><ele>745.0</ele><time>2026-03-22T13:34:23.965Z</time></trkpt><trkpt lat="45.57603" lon="11.2906117"><ele>745.0</ele><time>2026-03-22T13:34:24.967Z</time></trkpt><trkpt lat="45.5760733" lon="11.2904633"><ele>745.0</ele><time>2026-03-22T13:34:26.969Z</time></trkpt><trkpt lat="45.5761317" lon="11.2903167"><ele>746.2857142857142</ele><time>2026-03-22T13:34:28.969Z</time></trkpt><trkpt lat="45.57617" lon="11.2902417"><ele>747.5714285714286</ele><time>2026-03-22T13:34:29.967Z</time></trkpt><trkpt lat="45.5762083" lon="11.2901533"><ele>748.8571428571429</ele><time>2026-03-22T13:34:30.967Z</time></trkpt><trkpt lat="45.5762517" lon="11.290075"><ele>750.1428571428571</ele><time>2026-03-22T13:34:31.967Z</time></trkpt><trkpt lat="45.5762967" lon="11.2899483"><ele>751.4285714285714</ele><time>2026-03-22T13:34:33.966Z</time></trkpt><trkpt lat="45.57629" lon="11.2898533"><ele>752.7142857142857</ele><time>2026-03-22T13:34:35.964Z</time></trkpt><trkpt lat="45.5763267" lon="11.2897733"><ele>754.0</ele><time>2026-03-22T13:34:41.965Z</time></trkpt><trkpt lat="45.5763817" lon="11.2898333"><ele>753.9999999999999</ele><time>2026-03-22T13:34:45.967Z</time></trkpt><trkpt lat="45.5763133" lon="11.2899067"><ele>754.0</ele><time>2026-03-22T13:34:54.967Z</time></trkpt><trkpt lat="45.5762583" lon="11.289965"><ele>754.0</ele><time>2026-03-22T13:35:06.966Z</time></trkpt><trkpt lat="45.5762" lon="11.2900217"><ele>754.0</ele><time>2026-03-22T13:35:09.967Z</time></trkpt><trkpt lat="45.5761383" lon="11.2900717"><ele>754.0</ele><time>2026-03-22T13:35:14.967Z</time></trkpt><trkpt lat="45.5760833" lon="11.2901483"><ele>753.9999999999999</ele><time>2026-03-22T13:35:18.968Z</time></trkpt><trkpt lat="45.5760533" lon="11.2902333"><ele>754.0</ele><time>2026-03-22T13:35:28.967Z</time></trkpt><trkpt lat="45.5761267" lon="11.2901467"><ele>754.0</ele><time>2026-03-22T13:35:31.968Z</time></trkpt></trkseg></trk></gpx>